Time;durP1;ratioP1;P1;durP2;ratioP2;P2;SDS_P1;SDS_P2;PMS_P1;PMS_P2;Temp;Humidity;BMP_temperature;BMP_pressure;BME280_temperature;BME280_humidity;BME280_pressure;Samples;Min_cycle;Max_cycle;Signal;HPM_P1;HPM_P2
2023/09/10 00:01:44;;;;;;;11.40;6.50;;;19.90;99.90;;;;;;6215801;23;20216;-90
2023/09/10 00:04:10;;;;;;;14.63;6.50;;;19.50;99.90;;;;;;6216228;23;20555;-90
2023/09/10 00:06:36;;;;;;;8.93;6.70;;;19.40;99.90;;;;;;6234233;23;20153;-89
2023/09/10 00:09:03;;;;;;;10.20;6.27;;;20.10;99.90;;;;;;6231953;23;20168;-88
2023/09/10 00:11:29;;;;;;;8.27;6.87;;;19.40;99.90;;;;;;6214630;23;20160;-88
2023/09/10 00:13:54;;;;;;;9.33;7.00;;;20.00;1.00;;;;;;6215123;23;20219;-89
2023/09/10 00:16:20;;;;;;;13.00;6.83;;;19.30;1.00;;;;;;6217212;23;20180;-89
2023/09/10 00:18:46;;;;;;;9.77;6.70;;;19.70;1.00;;;;;;6214290;23;20595;-89
2023/09/10 00:21:11;;;;;;;9.17;6.23;;;19.30;1.00;;;;;;6215453;23;20264;-90
2023/09/10 00:23:38;;;;;;;8.03;5.87;;;19.30;1.00;;;;;;6214618;23;20152;-90
2023/09/10 00:26:04;;;;;;;9.53;6.60;;;19.70;1.00;;;;;;6215345;23;20196;-89
2023/09/10 00:28:31;;;;;;;10.40;6.03;;;18.80;1.00;;;;;;6217067;23;20213;-90
2023/09/10 00:30:56;;;;;;;8.37;6.77;;;19.20;1.00;;;;;;6192248;23;20153;-91
2023/09/10 00:33:24;;;;;;;7.87;6.63;;;19.30;1.00;;;;;;6214028;23;20165;-89
2023/09/10 00:35:49;;;;;;;8.17;6.23;;;19.70;1.00;;;;;;6216407;23;20191;-91
2023/09/10 00:38:15;;;;;;;8.53;5.90;;;19.10;1.00;;;;;;6215880;23;20176;-89
2023/09/10 00:40:40;;;;;;;13.87;7.13;;;19.10;1.00;;;;;;6214375;23;20224;-89
2023/09/10 00:43:06;;;;;;;8.93;6.67;;;19.80;1.00;;;;;;6215154;23;20252;-91
2023/09/10 00:45:32;;;;;;;9.97;6.63;;;19.40;1.00;;;;;;6214821;23;20577;-90
2023/09/10 00:47:58;;;;;;;10.10;6.73;;;19.00;1.00;;;;;;6190581;23;20184;-90
2023/09/10 00:50:24;;;;;;;10.10;6.87;;;19.20;1.00;;;;;;6216022;23;20165;-90
2023/09/10 00:52:53;;;;;;;7.20;6.47;;;19.00;1.00;;;;;;6214578;23;20165;-87
2023/09/10 00:55:20;;;;;;;7.40;6.07;;;20.00;1.00;;;;;;6189124;23;20597;-89
2023/09/10 00:57:46;;;;;;;9.30;7.00;;;18.90;1.00;;;;;;6213292;23;20204;-88
2023/09/10 01:00:13;;;;;;;12.93;7.63;;;18.80;1.00;;;;;;6216533;23;20629;-90
2023/09/10 01:02:43;;;;;;;12.60;7.00;;;18.80;1.00;;;;;;6215944;23;20508;-90
2023/09/10 01:05:12;;;;;;;11.60;7.20;;;18.80;1.00;;;;;;6217529;23;20184;-88
2023/09/10 01:07:38;;;;;;;12.13;7.60;;;18.80;1.00;;;;;;6222748;23;20184;-90
2023/09/10 01:10:06;;;;;;;10.53;7.70;;;18.80;1.00;;;;;;6216154;23;20543;-88
2023/09/10 01:12:36;;;;;;;11.27;7.73;;;18.80;1.00;;;;;;6214833;23;20157;-90
2023/09/10 01:15:14;;;;;;;10.73;8.30;;;18.70;1.00;;;;;;6190570;23;20157;-91
2023/09/10 01:17:52;;;;;;;9.90;7.87;;;18.70;1.00;;;;;;6190138;23;20247;-89
2023/09/10 01:20:31;;;;;;;11.37;8.20;;;19.20;1.00;;;;;;6217045;23;20196;-90
2023/09/10 01:23:28;;;;;;;11.90;7.87;;;18.70;1.00;;;;;;6216181;23;20325;-88
2023/09/10 01:25:57;;;;;;;12.37;8.80;;;18.70;1.00;;;;;;6214227;23;20191;-90
2023/09/10 01:28:23;;;;;;;13.23;8.10;;;19.00;1.00;;;;;;6215603;23;20160;-89
2023/09/10 01:30:49;;;;;;;11.17;8.30;;;18.70;1.00;;;;;;6215513;23;20307;-90
2023/09/10 01:33:25;;;;;;;15.17;10.47;;;18.60;1.00;;;;;;6189000;23;20172;-89
2023/09/10 01:36:01;;;;;;;15.93;10.90;;;18.70;1.00;;;;;;6189951;23;20208;-89
2023/09/10 01:38:36;;;;;;;15.87;10.60;;;18.60;1.00;;;;;;6190387;23;20180;-89
2023/09/10 01:41:11;;;;;;;16.17;10.73;;;18.50;1.00;;;;;;6215247;23;20187;-88
2023/09/10 01:43:38;;;;;;;19.10;10.90;;;18.60;1.00;;;;;;6214108;23;20175;-89
2023/09/10 01:46:05;;;;;;;14.30;9.60;;;18.50;1.00;;;;;;6189216;23;20184;-89
2023/09/10 01:48:31;;;;;;;16.37;10.10;;;18.50;1.00;;;;;;6214073;23;20185;-90
2023/09/10 01:50:57;;;;;;;12.20;10.20;;;18.60;1.00;;;;;;6213879;23;20161;-89
2023/09/10 01:53:23;;;;;;;17.83;9.43;;;18.50;1.00;;;;;;6214442;23;20184;-89
2023/09/10 01:55:48;;;;;;;16.03;10.60;;;18.50;1.00;;;;;;6214015;23;20189;-88
2023/09/10 01:58:14;;;;;;;17.27;9.47;;;18.40;1.00;;;;;;6188612;23;20489;-90
2023/09/10 02:00:40;;;;;;;18.90;10.30;;;18.70;1.00;;;;;;6214996;23;20181;-89
2023/09/10 02:03:06;;;;;;;19.33;11.17;;;19.10;1.00;;;;;;6214290;23;20168;-89
2023/09/10 02:05:33;;;;;;;12.83;9.40;;;18.40;1.00;;;;;;6189618;23;20608;-88
2023/09/10 02:07:59;;;;;;;13.43;9.80;;;18.40;1.00;;;;;;6214135;23;20165;-88
2023/09/10 02:10:28;;;;;;;12.20;9.77;;;18.40;1.00;;;;;;6216373;23;20465;-89
2023/09/10 02:12:53;;;;;;;11.83;8.60;;;18.30;1.00;;;;;;6215510;23;20161;-90
2023/09/10 02:15:19;;;;;;;12.67;9.60;;;18.40;1.00;;;;;;6216312;23;20171;-89
2023/09/10 02:17:45;;;;;;;12.83;10.50;;;18.30;1.00;;;;;;6214745;23;20184;-91
2023/09/10 02:20:11;;;;;;;12.50;9.07;;;18.30;1.00;;;;;;6191309;23;20184;-88
2023/09/10 02:22:38;;;;;;;16.27;9.23;;;18.30;1.00;;;;;;6214266;23;20216;-89
2023/09/10 02:25:04;;;;;;;18.10;9.97;;;18.30;1.00;;;;;;6216690;23;20161;-88
2023/09/10 02:27:31;;;;;;;11.73;9.10;;;18.30;1.00;;;;;;6216578;23;20187;-88
2023/09/10 02:29:57;;;;;;;10.40;9.00;;;18.30;1.00;;;;;;6216930;23;20534;-89
2023/09/10 02:32:23;;;;;;;10.80;8.70;;;18.20;1.00;;;;;;6215931;23;20153;-89
2023/09/10 02:34:51;;;;;;;10.47;8.47;;;18.50;1.00;;;;;;6216705;23;20222;-89
2023/09/10 02:37:17;;;;;;;13.90;9.23;;;18.20;1.00;;;;;;6192213;23;20189;-89
2023/09/10 02:39:43;;;;;;;10.93;8.70;;;18.20;1.00;;;;;;6217458;23;20238;-88
2023/09/10 02:42:08;;;;;;;18.23;9.30;;;18.20;1.00;;;;;;6217557;23;20193;-89
2023/09/10 02:44:34;;;;;;;12.93;8.67;;;18.30;1.00;;;;;;6216635;23;20605;-92
2023/09/10 02:47:01;;;;;;;15.87;8.97;;;18.10;1.00;;;;;;6215901;23;20177;-89
2023/09/10 02:49:26;;;;;;;17.70;9.20;;;18.10;1.00;;;;;;6217333;23;20161;-88
2023/09/10 02:51:52;;;;;;;10.80;9.20;;;18.10;1.00;;;;;;6216671;23;20258;-88
2023/09/10 02:54:18;;;;;;;15.33;9.80;;;18.30;1.00;;;;;;6217917;23;20225;-89
2023/09/10 02:56:44;;;;;;;16.83;10.23;;;18.10;1.00;;;;;;6217407;23;20195;-88
2023/09/10 02:59:23;;;;;;;14.33;9.10;;;18.10;1.00;;;;;;6192221;23;20547;-90
2023/09/10 03:01:49;;;;;;;13.23;9.13;;;18.10;1.00;;;;;;6217084;23;20262;-90
2023/09/10 03:04:15;;;;;;;23.93;9.33;;;18.00;1.00;;;;;;6217105;23;20164;-90
2023/09/10 03:06:49;;;;;;;14.00;9.17;;;18.00;1.00;;;;;;6193085;23;20181;-90
2023/09/10 03:09:15;;;;;;;14.27;8.83;;;18.10;1.00;;;;;;6219309;23;20221;-89
2023/09/10 03:11:43;;;;;;;14.57;9.30;;;18.30;1.00;;;;;;6225455;23;20496;-90
2023/09/10 03:14:09;;;;;;;14.63;8.43;;;18.00;1.00;;;;;;6201688;23;20165;-90
2023/09/10 03:16:36;;;;;;;12.90;8.37;;;17.90;1.00;;;;;;6238182;23;20227;-90
2023/09/10 03:19:03;;;;;;;13.60;8.03;;;18.90;1.00;;;;;;6237965;23;20188;-90
2023/09/10 03:21:28;;;;;;;10.70;8.30;;;17.90;1.00;;;;;;6235373;23;20177;-90
2023/09/10 03:23:55;;;;;;;13.10;8.57;;;17.90;1.00;;;;;;6233954;23;20165;-89
2023/09/10 03:26:21;;;;;;;13.57;8.83;;;17.80;1.00;;;;;;6207000;23;20173;-89
2023/09/10 03:28:47;;;;;;;14.30;7.93;;;17.80;1.00;;;;;;6215139;23;20244;-90
2023/09/10 03:31:12;;;;;;;18.93;8.87;;;17.80;1.00;;;;;;6215557;23;20164;-89
2023/09/10 03:33:39;;;;;;;14.63;8.47;;;17.80;1.00;;;;;;6191777;23;20164;-90
2023/09/10 03:36:05;;;;;;;14.77;8.17;;;17.80;1.00;;;;;;6215684;23;20184;-91
2023/09/10 03:38:31;;;;;;;12.57;8.73;;;17.70;1.00;;;;;;6216026;23;20169;-89
2023/09/10 03:40:57;;;;;;;9.83;7.50;;;17.50;1.00;;;;;;6215606;23;20231;-91
2023/09/10 03:43:23;;;;;;;14.13;8.10;;;17.70;1.00;;;;;;6215763;23;20157;-90
2023/09/10 03:45:48;;;;;;;12.43;8.23;;;17.60;1.00;;;;;;6216134;23;20207;-89
2023/09/10 03:48:14;;;;;;;10.47;8.47;;;17.80;1.00;;;;;;6233118;23;20169;-90
2023/09/10 03:50:40;;;;;;;12.97;8.70;;;17.60;1.00;;;;;;6217727;23;20160;-90
2023/09/10 03:53:06;;;;;;;11.40;8.50;;;17.60;1.00;;;;;;6215317;23;20161;-91
2023/09/10 03:55:32;;;;;;;10.30;8.97;;;17.60;1.00;;;;;;6215664;23;20162;-91
2023/09/10 03:57:58;;;;;;;13.60;9.13;;;17.80;1.00;;;;;;6216304;23;20611;-90
2023/09/10 04:00:23;;;;;;;12.80;8.40;;;17.60;1.00;;;;;;6215547;23;20216;-89
2023/09/10 04:02:49;;;;;;;16.17;8.33;;;17.50;1.00;;;;;;6215108;23;20180;-91
2023/09/10 04:05:15;;;;;;;13.83;8.90;;;17.60;1.00;;;;;;6216672;23;20192;-90
2023/09/10 04:07:41;;;;;;;14.63;8.37;;;17.50;1.00;;;;;;6213796;23;20180;-90
2023/09/10 04:10:07;;;;;;;9.70;8.13;;;18.40;1.00;;;;;;6215687;23;20157;-91
2023/09/10 04:12:33;;;;;;;11.50;7.60;;;17.50;1.00;;;;;;6214926;23;20496;-89
2023/09/10 04:14:59;;;;;;;13.17;8.50;;;17.40;1.00;;;;;;6215256;23;20184;-91
2023/09/10 04:17:28;;;;;;;12.77;8.90;;;17.20;1.00;;;;;;6214924;23;20184;-91
2023/09/10 04:19:54;;;;;;;11.03;8.20;;;18.30;1.00;;;;;;6216644;23;20497;-91
2023/09/10 04:22:20;;;;;;;14.33;8.93;;;17.40;1.00;;;;;;6214030;23;20160;-88
2023/09/10 04:24:46;;;;;;;16.07;8.83;;;17.70;1.00;;;;;;6215046;23;20160;-90
2023/09/10 04:27:11;;;;;;;11.53;8.43;;;17.70;1.00;;;;;;6214973;23;20265;-92
2023/09/10 04:29:37;;;;;;;15.17;8.53;;;17.40;1.00;;;;;;6216545;23;20211;-89
2023/09/10 04:32:03;;;;;;;12.53;8.60;;;17.30;1.00;;;;;;6190730;23;20165;-90
2023/09/10 04:34:31;;;;;;;12.77;8.77;;;17.30;1.00;;;;;;6219121;23;20156;-90
2023/09/10 04:36:57;;;;;;;11.57;8.97;;;17.30;1.00;;;;;;6194428;23;20207;-90
2023/09/10 04:39:24;;;;;;;12.67;9.60;;;17.30;1.00;;;;;;6219792;23;20152;-90
2023/09/10 04:41:53;;;;;;;19.13;9.70;;;17.30;1.00;;;;;;6194184;23;20181;-90
2023/09/10 04:44:20;;;;;;;15.13;9.97;;;17.40;1.00;;;;;;6216074;23;20157;-89
2023/09/10 04:46:45;;;;;;;13.93;9.03;;;17.80;1.00;;;;;;6213332;23;20177;-90
2023/09/10 04:49:11;;;;;;;17.70;8.90;;;17.50;1.00;;;;;;6228211;23;20157;-90
2023/09/10 04:51:37;;;;;;;13.67;9.23;;;17.50;1.00;;;;;;6238427;23;20149;-86
2023/09/10 04:54:02;;;;;;;13.00;9.37;;;17.40;1.00;;;;;;6240402;23;20163;-89
2023/09/10 04:56:28;;;;;;;16.20;9.60;;;17.50;1.00;;;;;;6165562;23;20185;-89
2023/09/10 04:58:54;;;;;;;16.70;9.10;;;18.10;1.00;;;;;;6215147;23;20218;-91
2023/09/10 05:01:20;;;;;;;12.10;9.23;;;17.50;1.00;;;;;;6216033;23;20635;-89
2023/09/10 05:03:46;;;;;;;14.80;9.50;;;17.40;1.00;;;;;;6216428;23;20236;-91
2023/09/10 05:06:13;;;;;;;11.47;8.37;;;17.40;1.00;;;;;;6224176;23;20176;-90
2023/09/10 05:08:38;;;;;;;13.97;8.30;;;17.40;1.00;;;;;;6216575;23;20189;-92
2023/09/10 05:11:04;;;;;;;11.80;9.00;;;17.50;1.00;;;;;;6216114;23;20219;-89
2023/09/10 05:13:30;;;;;;;14.43;9.37;;;17.50;1.00;;;;;;6216482;23;20649;-90
2023/09/10 05:15:57;;;;;;;13.00;9.17;;;17.70;1.00;;;;;;6217135;23;20190;-90
2023/09/10 05:18:24;;;;;;;12.80;8.73;;;16.60;1.00;;;;;;6216925;23;20168;-90
2023/09/10 05:20:50;;;;;;;12.20;9.73;;;17.40;1.00;;;;;;6217847;23;20292;-90
2023/09/10 05:23:16;;;;;;;11.70;8.67;;;17.90;1.00;;;;;;6217183;23;20530;-89
2023/09/10 05:25:42;;;;;;;14.47;9.03;;;17.40;1.00;;;;;;6217529;23;20157;-92
2023/09/10 05:28:09;;;;;;;12.73;9.67;;;17.40;1.00;;;;;;6217193;23;20164;-90
2023/09/10 05:30:38;;;;;;;15.87;9.30;;;17.50;1.00;;;;;;6216375;23;20160;-90
2023/09/10 05:33:04;;;;;;;12.13;8.93;;;17.50;1.00;;;;;;6216633;23;20598;-90
2023/09/10 05:35:29;;;;;;;14.70;9.03;;;17.60;1.00;;;;;;6219040;23;20167;-91
2023/09/10 05:37:56;;;;;;;10.00;8.37;;;17.70;1.00;;;;;;6216418;23;20176;-92
2023/09/10 05:40:22;;;;;;;14.80;9.43;;;17.60;1.00;;;;;;6216066;23;20189;-90
2023/09/10 05:42:47;;;;;;;15.20;9.77;;;17.70;1.00;;;;;;6216395;23;20184;-90
2023/09/10 05:45:14;;;;;;;12.47;8.80;;;18.70;1.00;;;;;;6215837;23;20527;-89
2023/09/10 05:47:40;;;;;;;13.90;9.83;;;17.60;1.00;;;;;;6215550;23;20251;-90
2023/09/10 05:50:06;;;;;;;12.53;9.20;;;18.70;1.00;;;;;;6190706;23;20184;-91
2023/09/10 05:52:31;;;;;;;15.83;9.43;;;17.70;1.00;;;;;;6220329;23;20188;-89
2023/09/10 05:54:57;;;;;;;13.67;9.47;;;18.10;1.00;;;;;;6215373;23;20157;-91
2023/09/10 05:57:22;;;;;;;12.53;9.43;;;18.50;1.00;;;;;;6218022;23;20219;-89
2023/09/10 05:59:49;;;;;;;11.63;9.80;;;17.80;1.00;;;;;;6216543;23;20164;-91
2023/09/10 06:02:15;;;;;;;16.67;9.93;;;17.90;1.50;;;;;;6215123;23;20188;-90
2023/09/10 06:04:41;;;;;;;15.60;8.53;;;18.30;4.80;;;;;;6216098;23;20214;-92
2023/09/10 06:07:06;;;;;;;10.33;8.27;;;17.90;5.10;;;;;;6215558;23;20177;-91
2023/09/10 06:09:32;;;;;;;12.10;8.97;;;18.90;5.70;;;;;;6216335;23;20164;-91
2023/09/10 06:11:59;;;;;;;12.77;9.20;;;17.90;5.30;;;;;;6215562;23;20167;-91
2023/09/10 06:14:25;;;;;;;11.37;9.47;;;18.40;6.50;;;;;;6216010;23;20171;-89
2023/09/10 06:16:51;;;;;;;12.27;9.40;;;18.10;8.00;;;;;;6216104;23;20181;-92
2023/09/10 06:19:16;;;;;;;15.33;9.97;;;18.10;9.60;;;;;;6216977;23;20228;-90
2023/09/10 06:21:42;;;;;;;17.93;9.80;;;18.90;12.00;;;;;;6216210;23;20189;-91
2023/09/10 06:24:08;;;;;;;18.53;10.10;;;18.30;13.50;;;;;;6216160;23;20652;-91
2023/09/10 06:26:34;;;;;;;15.33;9.97;;;19.10;16.80;;;;;;6190849;23;20189;-91
2023/09/10 06:29:01;;;;;;;17.93;10.83;;;18.90;22.00;;;;;;6215562;23;20655;-91
2023/09/10 06:31:27;;;;;;;13.90;10.07;;;18.80;26.20;;;;;;6216194;23;20554;-90
2023/09/10 06:33:54;;;;;;;14.23;10.37;;;18.50;30.60;;;;;;6192302;23;20153;-91
2023/09/10 06:36:20;;;;;;;15.07;10.33;;;18.50;35.00;;;;;;6165754;23;20188;-91
2023/09/10 06:38:49;;;;;;;13.43;10.00;;;19.50;39.40;;;;;;6215014;23;20181;-92
2023/09/10 06:41:15;;;;;;;13.67;9.87;;;18.70;42.50;;;;;;6193425;23;20192;-90
2023/09/10 06:43:44;;;;;;;12.03;9.73;;;19.70;45.10;;;;;;6216678;23;20227;-91
2023/09/10 06:46:10;;;;;;;14.20;10.07;;;19.00;49.10;;;;;;6189867;23;20252;-90
2023/09/10 06:48:36;;;;;;;17.20;10.60;;;19.10;51.70;;;;;;6188964;23;20165;-90
2023/09/10 06:51:02;;;;;;;12.73;10.03;;;19.10;52.90;;;;;;6215304;23;20161;-89
2023/09/10 06:53:28;;;;;;;15.83;9.73;;;20.00;50.70;;;;;;6215072;23;20165;-89
2023/09/10 06:55:54;;;;;;;16.90;10.70;;;19.50;49.20;;;;;;6214121;23;20258;-89
2023/09/10 06:58:20;;;;;;;15.73;10.60;;;19.80;45.00;;;;;;6188285;23;20157;-91
2023/09/10 07:00:46;;;;;;;12.53;10.33;;;19.80;45.50;;;;;;6214316;23;20184;-89
2023/09/10 07:03:13;;;;;;;16.87;10.23;;;19.90;49.70;;;;;;6189752;23;20157;-89
2023/09/10 07:05:43;;;;;;;16.30;11.07;;;20.40;53.70;;;;;;6196582;23;20153;-89
2023/09/10 07:08:11;;;;;;;15.37;10.60;;;20.30;56.10;;;;;;6191301;23;20165;-89
2023/09/10 07:10:37;;;;;;;14.67;9.70;;;20.40;59.50;;;;;;6215464;23;20161;-92
2023/09/10 07:13:07;;;;;;;11.50;10.13;;;20.80;54.80;;;;;;6215028;23;20160;-90
2023/09/10 07:15:34;;;;;;;15.80;9.07;;;20.70;48.30;;;;;;6216515;23;20165;-89
2023/09/10 07:18:00;;;;;;;12.83;9.83;;;21.20;42.40;;;;;;6217427;23;20196;-92
2023/09/10 07:20:27;;;;;;;12.27;9.50;;;21.00;36.20;;;;;;6214920;23;20216;-90
2023/09/10 07:22:54;;;;;;;14.43;10.13;;;21.20;29.10;;;;;;6214847;23;20181;-89
2023/09/10 07:25:19;;;;;;;13.67;10.27;;;21.40;24.80;;;;;;6189906;23;20180;-89
2023/09/10 07:27:45;;;;;;;12.47;9.70;;;21.60;21.00;;;;;;6191795;23;20176;-90
2023/09/10 07:30:11;;;;;;;15.47;9.87;;;21.80;18.30;;;;;;6216515;23;20164;-89
2023/09/10 07:32:37;;;;;;;16.07;9.47;;;21.90;14.80;;;;;;6192365;23;20149;-88
2023/09/10 07:35:04;;;;;;;10.63;9.13;;;22.00;8.60;;;;;;6214230;23;20161;-89
2023/09/10 07:37:29;;;;;;;10.37;9.07;;;22.20;1.00;;;;;;6213989;23;20224;-89
2023/09/10 07:39:56;;;;;;;13.30;9.13;;;22.30;1.00;;;;;;6190996;23;20160;-90
2023/09/10 07:42:21;;;;;;;16.50;8.80;;;22.50;1.00;;;;;;6213827;23;20240;-90
2023/09/10 07:44:47;;;;;;;13.97;8.47;;;22.60;1.00;;;;;;6190402;23;20177;-90
2023/09/10 07:47:14;;;;;;;12.17;8.57;;;22.80;1.00;;;;;;6190051;23;20212;-88
2023/09/10 07:49:40;;;;;;;12.80;8.63;;;22.90;1.00;;;;;;6189260;23;20180;-88
2023/09/10 07:52:06;;;;;;;15.70;8.03;;;23.10;1.00;;;;;;6214059;23;20172;-90
2023/09/10 07:54:35;;;;;;;10.73;8.37;;;23.20;1.00;;;;;;6213351;23;20161;-91
2023/09/10 07:57:03;;;;;;;12.53;8.00;;;23.30;1.00;;;;;;6189789;23;20211;-88
2023/09/10 07:59:29;;;;;;;12.53;8.80;;;23.60;1.00;;;;;;6189980;23;20220;-89
2023/09/10 08:01:54;;;;;;;11.20;8.17;;;23.70;1.00;;;;;;6188527;23;20278;-90
2023/09/10 08:04:21;;;;;;;12.83;7.83;;;23.80;1.00;;;;;;6191231;23;20160;-90
2023/09/10 08:06:47;;;;;;;9.77;7.67;;;23.90;1.00;;;;;;6214271;23;20177;-90
2023/09/10 08:09:13;;;;;;;13.97;8.03;;;24.10;1.00;;;;;;6191004;23;20183;-89
2023/09/10 08:11:38;;;;;;;11.97;7.43;;;24.20;1.00;;;;;;6214460;23;20161;-90
2023/09/10 08:14:04;;;;;;;11.93;8.27;;;24.20;1.00;;;;;;6214809;23;20188;-90
2023/09/10 08:16:29;;;;;;;10.30;7.20;;;24.50;1.00;;;;;;6189694;23;20211;-90
2023/09/10 08:18:55;;;;;;;12.53;7.60;;;24.60;1.00;;;;;;6214507;23;20164;-90
2023/09/10 08:21:22;;;;;;;19.27;7.83;;;24.70;1.00;;;;;;6191685;23;20561;-89
2023/09/10 08:23:48;;;;;;;9.67;6.87;;;24.90;1.00;;;;;;6214559;23;20156;-89
2023/09/10 08:26:14;;;;;;;8.63;7.33;;;25.30;1.00;;;;;;6214980;23;20244;-91
2023/09/10 08:28:41;;;;;;;17.13;6.67;;;25.10;1.00;;;;;;6188972;23;20184;-89
2023/09/10 08:31:06;;;;;;;10.23;6.87;;;25.20;99.90;;;;;;6215306;23;20165;-90
2023/09/10 08:33:32;;;;;;;11.40;6.73;;;25.30;99.90;;;;;;6214290;23;20191;-92
2023/09/10 08:35:58;;;;;;;11.27;6.43;;;25.40;1.00;;;;;;6191400;23;20177;-91
2023/09/10 08:38:23;;;;;;;9.53;6.20;;;25.50;1.00;;;;;;6215730;23;20183;-90
2023/09/10 08:40:59;;;;;;;8.90;6.07;;;25.60;99.90;;;;;;6190677;23;20204;-91
2023/09/10 08:43:37;;;;;;;13.10;6.50;;;25.70;99.90;;;;;;6192172;23;20601;-91
2023/09/10 08:46:07;;;;;;;8.93;5.83;;;25.90;1.00;;;;;;6208912;23;20179;-90
2023/09/10 08:48:34;;;;;;;9.40;5.60;;;26.10;99.90;;;;;;6201853;23;20157;-90
2023/09/10 08:51:00;;;;;;;11.80;5.90;;;26.10;1.00;;;;;;6191074;23;20157;-89
2023/09/10 08:53:27;;;;;;;13.47;5.90;;;26.20;1.00;;;;;;6214135;23;20212;-90
2023/09/10 08:55:53;;;;;;;9.37;5.03;;;26.30;99.90;;;;;;6190418;23;20625;-91
2023/09/10 08:58:19;;;;;;;10.80;6.13;;;26.50;99.90;;;;;;6213482;23;20220;-88
2023/09/10 09:00:46;;;;;;;12.50;5.80;;;26.60;99.90;;;;;;6216007;23;20268;-89
2023/09/10 09:03:12;;;;;;;13.07;5.90;;;26.80;99.90;;;;;;6223288;23;20161;-91
2023/09/10 09:05:40;;;;;;;11.93;5.63;;;26.90;99.90;;;;;;6214778;23;20167;-89
2023/09/10 09:08:16;;;;;;;13.20;5.43;;;27.00;1.00;;;;;;6213958;23;20619;-89
2023/09/10 09:10:44;;;;;;;8.10;4.90;;;27.20;99.90;;;;;;6215464;23;20211;-90
2023/09/10 09:13:12;;;;;;;14.87;5.37;;;27.30;46.50;;;;;;6214048;23;20161;-92
2023/09/10 09:15:39;;;;;;;11.47;5.03;;;27.40;1.00;;;;;;6214408;23;20161;-89
2023/09/10 09:18:08;;;;;;;8.67;4.40;;;27.50;1.00;;;;;;6213839;23;20165;-91
2023/09/10 09:20:36;;;;;;;11.57;4.77;;;27.60;1.00;;;;;;6214278;23;20283;-90
2023/09/10 09:23:27;;;;;;;9.50;4.47;;;27.70;99.90;;;;;;6215727;23;20551;-91
2023/09/10 09:25:54;;;;;;;5.87;4.63;;;27.90;99.90;;;;;;6191624;23;20181;-89
2023/09/10 09:28:22;;;;;;;12.40;5.70;;;28.00;99.90;;;;;;6215552;23;20161;-89
2023/09/10 09:30:48;;;;;;;6.77;4.60;;;28.10;99.90;;;;;;6216509;23;20152;-89
2023/09/10 09:33:14;;;;;;;9.00;4.73;;;28.20;99.90;;;;;;6215135;23;20507;-90
2023/09/10 09:35:40;;;;;;;10.53;5.03;;;28.30;99.90;;;;;;6190172;23;20181;-90
2023/09/10 09:38:09;;;;;;;8.63;4.90;;;28.50;4.30;;;;;;6216096;23;20184;-91
2023/09/10 09:40:35;;;;;;;8.63;4.60;;;28.50;9.50;;;;;;6215173;23;20640;-91
2023/09/10 09:43:07;;;;;;;6.43;4.10;;;28.60;1.00;;;;;;6215626;23;20221;-91
2023/09/10 09:45:33;;;;;;;8.33;4.27;;;28.70;1.00;;;;;;6192437;23;20643;-92
2023/09/10 09:47:58;;;;;;;11.53;4.80;;;28.90;1.00;;;;;;6215343;23;20156;-91
2023/09/10 09:50:26;;;;;;;7.03;4.07;;;28.90;1.00;;;;;;6193093;23;20164;-91
2023/09/10 09:52:54;;;;;;;9.93;4.50;;;29.00;1.00;;;;;;6216653;23;20168;-90
2023/09/10 09:55:21;;;;;;;9.13;4.00;;;29.20;1.00;;;;;;6217367;23;20161;-88
2023/09/10 09:57:47;;;;;;;14.50;4.40;;;29.30;1.00;;;;;;6192745;23;20656;-92
2023/09/10 10:00:13;;;;;;;10.07;3.60;;;29.30;1.00;;;;;;6193004;23;20153;-89
2023/09/10 10:02:39;;;;;;;8.40;3.50;;;29.40;1.00;;;;;;6216387;23;20180;-92
2023/09/10 10:05:07;;;;;;;9.67;3.97;;;29.50;1.00;;;;;;6216651;23;20160;-88
2023/09/10 10:07:35;;;;;;;12.87;3.77;;;29.60;1.00;;;;;;6215873;23;20203;-90
2023/09/10 10:10:01;;;;;;;9.20;3.77;;;29.60;1.00;;;;;;6216330;23;20157;-90
2023/09/10 10:12:27;;;;;;;11.57;3.80;;;29.70;1.00;;;;;;6215355;23;20157;-87
2023/09/10 10:14:56;;;;;;;10.40;3.35;;;29.80;1.00;;;;;;6216118;23;20157;-91
2023/09/10 10:17:25;;;;;;;9.20;3.63;;;30.00;1.00;;;;;;6216640;23;20176;-93
2023/09/10 10:19:52;;;;;;;7.43;3.75;;;30.10;1.00;;;;;;6216557;23;20593;-90
2023/09/10 10:22:19;;;;;;;14.73;4.00;;;30.20;1.00;;;;;;6216386;23;20290;-92
2023/09/10 10:24:45;;;;;;;8.95;3.60;;;30.30;1.00;;;;;;6193153;23;20160;-91
2023/09/10 10:27:13;;;;;;;16.67;3.80;;;30.40;1.00;;;;;;6193386;23;20504;-92
2023/09/10 10:29:40;;;;;;;7.72;3.65;;;30.50;1.00;;;;;;6217062;23;20252;-92
2023/09/10 10:32:30;;;;;;;10.85;3.53;;;30.50;1.00;;;;;;6191281;23;20168;-93
2023/09/10 10:34:59;;;;;;;5.47;3.17;;;30.70;1.00;;;;;;6217214;23;20149;-90
2023/09/10 10:37:40;;;;;;;9.45;3.67;;;30.70;1.00;;;;;;6215400;23;20219;-90
2023/09/10 10:40:19;;;;;;;13.48;4.00;;;30.80;1.00;;;;;;6192638;23;20158;-91
2023/09/10 10:42:52;;;;;;;9.98;3.47;;;30.90;1.00;;;;;;6215920;23;20164;-91
2023/09/10 10:45:19;;;;;;;13.95;4.03;;;31.00;1.00;;;;;;6189916;23;20189;-92
2023/09/10 10:47:47;;;;;;;8.85;4.40;;;31.10;1.00;;;;;;6215205;23;20272;-92
2023/09/10 10:50:20;;;;;;;8.48;3.30;;;31.20;1.00;;;;;;6191201;23;20161;-91
2023/09/10 10:52:59;;;;;;;7.25;3.30;;;31.30;1.00;;;;;;6215543;23;20161;-90
2023/09/10 10:55:26;;;;;;;7.45;3.40;;;31.40;1.00;;;;;;6216062;23;20598;-87
2023/09/10 10:57:53;;;;;;;7.32;3.25;;;31.50;1.00;;;;;;6227420;23;20203;-92
2023/09/10 11:00:21;;;;;;;10.75;3.95;;;31.60;1.00;;;;;;6217127;23;20168;-90
2023/09/10 11:03:07;;;;;;;8.27;3.50;;;31.80;1.00;;;;;;6217037;23;20157;-89
2023/09/10 11:05:57;;;;;;;14.40;3.80;;;31.80;1.00;;;;;;6192343;23;20152;-92
2023/09/10 11:08:34;;;;;;;7.75;3.33;;;31.90;1.00;;;;;;6192293;23;20183;-90
2023/09/10 11:11:01;;;;;;;8.95;3.15;;;32.00;1.00;;;;;;6217916;23;20153;-90
2023/09/10 11:13:27;;;;;;;7.22;3.67;;;32.10;1.00;;;;;;6193007;23;20165;-92
2023/09/10 11:16:05;;;;;;;8.05;2.83;;;32.10;1.00;;;;;;6192045;23;20208;-94
2023/09/10 11:18:37;;;;;;;10.23;3.10;;;32.30;1.00;;;;;;6192068;23;20191;-90
2023/09/10 11:21:07;;;;;;;14.13;3.60;;;32.40;1.00;;;;;;6193360;23;20287;-93
2023/09/10 11:23:36;;;;;;;7.70;3.30;;;32.50;1.00;;;;;;6217735;23;20213;-91
2023/09/10 11:26:14;;;;;;;7.68;3.40;;;32.60;1.00;;;;;;6218159;23;20177;-90
2023/09/10 11:28:50;;;;;;;7.88;3.42;;;32.60;1.00;;;;;;6193083;23;20180;-92
2023/09/10 11:31:39;;;;;;;10.02;3.30;;;32.60;1.00;;;;;;6224474;23;20156;-88
2023/09/10 11:34:22;;;;;;;11.65;3.20;;;32.60;1.00;;;;;;6215602;23;20157;-91
2023/09/10 11:37:03;;;;;;;10.40;3.00;;;32.70;1.00;;;;;;6190960;23;20179;-91
2023/09/10 11:39:29;;;;;;;7.05;2.95;;;32.80;1.00;;;;;;6216812;23;20561;-91
2023/09/10 11:41:57;;;;;;;10.88;3.08;;;32.90;1.00;;;;;;6215266;23;20197;-90
2023/09/10 11:44:24;;;;;;;6.00;3.53;;;32.80;1.00;;;;;;6215079;23;20161;-91
2023/09/10 11:46:51;;;;;;;7.95;3.60;;;32.70;1.00;;;;;;6215992;23;20223;-88
2023/09/10 11:49:17;;;;;;;5.78;3.22;;;32.70;1.00;;;;;;6216649;23;20168;-91
2023/09/10 11:51:56;;;;;;;10.60;3.40;;;32.70;1.00;;;;;;6192933;23;20165;-93
2023/09/10 11:54:22;;;;;;;6.85;3.50;;;32.80;1.00;;;;;;6216824;23;20664;-91
2023/09/10 11:56:53;;;;;;;6.72;3.10;;;32.90;1.00;;;;;;6216553;23;20187;-91
2023/09/10 11:59:29;;;;;;;9.73;3.35;;;33.00;1.00;;;;;;6215683;23;20219;-90
2023/09/10 12:01:56;;;;;;;5.80;3.15;;;33.10;1.00;;;;;;6217359;23;20176;-92
2023/09/10 12:04:32;;;;;;;8.70;3.15;;;33.30;1.00;;;;;;6216241;23;20156;-87
2023/09/10 12:06:58;;;;;;;9.95;3.72;;;33.30;1.00;;;;;;6193175;23;20223;-89
2023/09/10 12:09:32;;;;;;;8.38;3.25;;;33.10;1.00;;;;;;6215496;23;20614;-91
2023/09/10 12:12:09;;;;;;;9.15;3.30;;;33.00;1.00;;;;;;6215996;23;20157;-87
2023/09/10 12:14:35;;;;;;;12.93;3.50;;;33.00;1.00;;;;;;6192949;23;20168;-89
2023/09/10 12:17:01;;;;;;;12.80;3.17;;;32.90;1.00;;;;;;6215635;23;20181;-90
2023/09/10 12:19:27;;;;;;;5.78;3.40;;;32.80;1.00;;;;;;6192163;23;20156;-90
2023/09/10 12:21:53;;;;;;;11.43;3.70;;;32.70;1.00;;;;;;6216313;23;20192;-90
2023/09/10 12:24:25;;;;;;;11.90;3.72;;;32.80;1.00;;;;;;6217342;23;20161;-87
2023/09/10 12:26:50;;;;;;;9.48;3.25;;;32.80;1.00;;;;;;6218317;23;20251;-88
2023/09/10 12:29:19;;;;;;;8.98;3.70;;;32.80;1.00;;;;;;6218755;23;20164;-87
2023/09/10 12:31:46;;;;;;;11.05;3.20;;;32.80;1.00;;;;;;6218157;23;20165;-90
2023/09/10 12:34:14;;;;;;;9.43;3.30;;;32.70;1.00;;;;;;6217762;23;20164;-89
2023/09/10 12:36:40;;;;;;;9.70;3.25;;;32.70;1.00;;;;;;6217744;23;20212;-90
2023/09/10 12:39:23;;;;;;;8.57;3.53;;;32.70;1.00;;;;;;6217964;23;20180;-91
2023/09/10 12:41:56;;;;;;;11.65;3.83;;;32.70;1.00;;;;;;6217737;23;20181;-86
2023/09/10 12:44:23;;;;;;;6.63;3.42;;;32.80;1.00;;;;;;6193005;23;20161;-90
2023/09/10 12:46:49;;;;;;;11.25;3.85;;;32.90;1.00;;;;;;6216393;23;20200;-87
2023/09/10 12:49:15;;;;;;;11.88;3.20;;;33.00;1.00;;;;;;6191630;23;20167;-91
2023/09/10 12:51:42;;;;;;;6.25;3.20;;;33.30;1.00;;;;;;6218168;23;20161;-90